Time,TemperatureF,DewpointF,PressureIn,WindDirection,WindDirectionDegrees,WindSpeedMPH,WindSpeedGustMPH,Humidity,HourlyPrecipIn,Conditions,Clouds,dailyrainin,SoftwareType,DateUTC
2013-10-22 00:00:00,60.2,18.9,29.88,WSW,253,0.0,0.0,20,0.00,,,0.00,Wunderground v.1.15,2013-10-22 07:00:00,
2013-10-22 00:05:00,60.2,18.9,29.89,WSW,253,0.0,0.0,20,0.00,,,0.00,Wunderground v.1.15,2013-10-22 07:05:00,
2013-10-22 00:10:00,60.4,17.9,29.89,WSW,253,0.0,0.0,19,0.00,,,0.00,Wunderground v.1.15,2013-10-22 07:10:00,
2013-10-22 00:15:00,60.5,19.2,29.89,WSW,253,0.0,0.0,20,0.00,,,0.00,Wunderground v.1.15,2013-10-22 07:15:00,
2013-10-22 00:20:00,60.5,19.2,29.89,WSW,253,0.0,0.0,20,0.00,,,0.00,Wunderground v.1.15,2013-10-22 07:20:00,
2013-10-22 00:25:00,60.9,18.3,29.89,WSW,253,0.0,0.0,19,0.00,,,0.00,Wunderground v.1.15,2013-10-22 07:25:00,
2013-10-22 00:30:00,60.9,19.5,29.89,WSW,253,0.0,0.0,20,0.00,,,0.00,Wunderground v.1.15,2013-10-22 07:30:00,
2013-10-22 00:35:00,60.9,19.5,29.89,WSW,253,0.0,0.0,20,0.00,,,0.00,Wunderground v.1.15,2013-10-22 07:35:00,
2013-10-22 00:40:00,60.7,19.3,29.89,WSW,253,0.0,0.0,20,0.00,,,0.00,Wunderground v.1.15,2013-10-22 07:40:00,
2013-10-22 00:45:00,60.7,19.3,29.89,WSW,253,0.0,0.0,20,0.00,,,0.00,Wunderground v.1.15,2013-10-22 07:45:00,
2013-10-22 00:50:00,60.5,19.2,29.89,WSW,253,0.0,0.0,20,0.00,,,0.00,Wunderground v.1.15,2013-10-22 07:50:00,
2013-10-22 00:55:00,60.4,19.1,29.89,WSW,253,0.0,0.0,20,0.00,,,0.00,Wunderground v.1.15,2013-10-22 07:55:00,
2013-10-22 01:00:00,60.2,20.1,29.89,WSW,253,0.0,0.0,21,0.00,,,0.00,Wunderground v.1.15,2013-10-22 08:00:00,
2013-10-22 01:05:00,59.8,20.8,29.89,WSW,253,0.0,0.0,22,0.00,,,0.00,Wunderground v.1.15,2013-10-22 08:05:00,
2013-10-22 01:10:00,59.3,19.3,29.89,WSW,253,0.0,0.0,21,0.00,,,0.00,Wunderground v.1.15,2013-10-22 08:10:00,
2013-10-22 01:15:00,59.0,19.1,29.89,WSW,253,0.0,0.0,21,0.00,,,0.00,Wunderground v.1.15,2013-10-22 08:15:00,
2013-10-22 01:20:00,58.7,18.8,29.90,WSW,253,0.0,0.0,21,0.00,,,0.00,Wunderground v.1.15,2013-10-22 08:20:00,
2013-10-22 01:25:00,58.6,18.7,29.90,WSW,253,0.0,0.0,21,0.00,,,0.00,Wunderground v.1.15,2013-10-22 08:25:00,
2013-10-22 01:30:00,58.6,18.7,29.90,WSW,253,0.0,0.0,21,0.00,,,0.00,Wunderground v.1.15,2013-10-22 08:30:00,
2013-10-22 01:35:00,58.9,17.8,29.90,WSW,253,0.0,0.0,20,0.00,,,0.00,Wunderground v.1.15,2013-10-22 08:35:00,
2013-10-22 01:40:00,59.0,19.1,29.90,WSW,253,0.0,0.0,21,0.00,,,0.00,Wunderground v.1.15,2013-10-22 08:40:00,
2013-10-22 01:45:00,59.2,19.2,29.90,WSW,253,0.0,0.0,21,0.00,,,0.00,Wunderground v.1.15,2013-10-22 08:45:00,
2013-10-22 01:50:00,59.3,18.2,29.90,WSW,253,0.0,0.0,20,0.00,,,0.00,Wunderground v.1.15,2013-10-22 08:50:00,
2013-10-22 01:55:00,59.6,18.4,29.90,WSW,253,0.0,0.0,20,0.00,,,0.00,Wunderground v.1.15,2013-10-22 08:55:00,
2013-10-22 02:00:00,59.5,18.3,29.90,WSW,253,0.0,0.0,20,0.00,,,0.00,Wunderground v.1.15,2013-10-22 09:00:00,
2013-10-22 02:05:00,59.2,18.1,29.90,WSW,253,0.0,0.0,20,0.00,,,0.00,Wunderground v.1.15,2013-10-22 09:05:00,
2013-10-22 02:10:00,59.0,17.9,29.90,WSW,253,0.0,0.0,20,0.00,,,0.00,Wunderground v.1.15,2013-10-22 09:10:00,
2013-10-22 02:20:00,59.0,17.9,29.90,WSW,253,0.0,0.0,20,0.00,,,0.00,Wunderground v.1.15,2013-10-22 09:20:00,
2013-10-22 02:25:00,59.0,17.9,29.90,WSW,253,0.0,0.0,20,0.00,,,0.00,Wunderground v.1.15,2013-10-22 09:25:00,
2013-10-22 02:30:00,59.2,18.1,29.90,WSW,253,0.0,0.0,20,0.00,,,0.00,Wunderground v.1.15,2013-10-22 09:30:00,
2013-10-22 02:35:00,59.8,17.4,29.90,WSW,253,0.0,0.0,19,0.00,,,0.00,Wunderground v.1.15,2013-10-22 09:35:00,
2013-10-22 02:40:00,59.5,17.1,29.90,WSW,253,0.0,0.0,19,0.00,,,0.00,Wunderground v.1.15,2013-10-22 09:40:00,
2013-10-22 02:45:00,59.2,18.1,29.90,WSW,253,0.0,0.0,20,0.00,,,0.00,Wunderground v.1.15,2013-10-22 09:45:00,
2013-10-22 02:50:00,58.6,17.6,29.90,WSW,253,0.0,0.0,20,0.00,,,0.00,Wunderground v.1.15,2013-10-22 09:50:00,
2013-10-22 02:55:00,58.3,18.5,29.90,WSW,253,0.0,0.0,21,0.00,,,0.00,Wunderground v.1.15,2013-10-22 09:55:00,
2013-10-22 03:00:00,58.0,18.2,29.90,WSW,253,0.0,0.0,21,0.00,,,0.00,Wunderground v.1.15,2013-10-22 10:00:00,
2013-10-22 03:05:00,58.3,18.5,29.90,WSW,253,0.0,0.0,21,0.00,,,0.00,Wunderground v.1.15,2013-10-22 10:05:00,
2013-10-22 03:10:00,58.6,19.8,29.90,WSW,253,0.0,0.0,22,0.00,,,0.00,Wunderground v.1.15,2013-10-22 10:10:00,
2013-10-22 03:15:00,58.0,19.3,29.90,WSW,253,0.0,0.0,22,0.00,,,0.00,Wunderground v.1.15,2013-10-22 10:15:00,
2013-10-22 03:20:00,57.5,20.9,29.90,WSW,253,0.0,0.0,24,0.00,,,0.00,Wunderground v.1.15,2013-10-22 10:20:00,
2013-10-22 03:25:00,57.0,23.3,29.90,WSW,253,0.0,0.0,27,0.00,,,0.00,Wunderground v.1.15,2013-10-22 10:25:00,
2013-10-22 03:30:00,56.9,21.4,29.90,WSW,253,0.0,0.0,25,0.00,,,0.00,Wunderground v.1.15,2013-10-22 10:30:00,
2013-10-22 03:35:00,56.9,19.4,29.89,WSW,253,0.0,0.0,23,0.00,,,0.00,Wunderground v.1.15,2013-10-22 10:35:00,
2013-10-22 03:40:00,56.9,19.4,29.89,WSW,253,0.0,0.0,23,0.00,,,0.00,Wunderground v.1.15,2013-10-22 10:40:00,
2013-10-22 03:45:00,56.7,19.3,29.89,WSW,253,0.0,0.0,23,0.00,,,0.00,Wunderground v.1.15,2013-10-22 10:45:00,
2013-10-22 03:50:00,56.9,19.4,29.89,WSW,253,0.0,0.0,23,0.00,,,0.00,Wunderground v.1.15,2013-10-22 10:50:00,
2013-10-22 03:55:00,56.9,18.4,29.89,WSW,253,0.0,0.0,22,0.00,,,0.00,Wunderground v.1.15,2013-10-22 10:55:00,
2013-10-22 04:00:00,57.0,19.5,29.89,WSW,253,0.0,0.0,23,0.00,,,0.00,Wunderground v.1.15,2013-10-22 11:00:00,
2013-10-22 04:05:00,56.9,18.4,29.89,WSW,253,0.0,0.0,22,0.00,,,0.00,Wunderground v.1.15,2013-10-22 11:05:00,
2013-10-22 04:10:00,56.6,18.1,29.89,WSW,253,0.0,0.0,22,0.00,,,0.00,Wunderground v.1.15,2013-10-22 11:10:00,
2013-10-22 04:15:00,56.5,19.1,29.89,WSW,253,0.0,0.0,23,0.00,,,0.00,Wunderground v.1.15,2013-10-22 11:15:00,
2013-10-22 04:20:00,56.3,17.9,29.89,WSW,253,0.0,0.0,22,0.00,,,0.00,Wunderground v.1.15,2013-10-22 11:20:00,
2013-10-22 04:25:00,56.2,17.8,29.89,WSW,253,0.0,0.0,22,0.00,,,0.00,Wunderground v.1.15,2013-10-22 11:25:00,
2013-10-22 04:30:00,56.0,18.7,29.89,WSW,253,0.0,0.0,23,0.00,,,0.00,Wunderground v.1.15,2013-10-22 11:30:00,
2013-10-22 04:35:00,55.9,17.6,29.90,WSW,253,0.0,0.0,22,0.00,,,0.00,Wunderground v.1.15,2013-10-22 11:35:00,
2013-10-22 04:40:00,55.7,18.4,29.90,WSW,253,0.0,0.0,23,0.00,,,0.00,Wunderground v.1.15,2013-10-22 11:40:00,
2013-10-22 04:45:00,55.4,18.2,29.90,WSW,253,0.0,0.0,23,0.00,,,0.00,Wunderground v.1.15,2013-10-22 11:45:00,
2013-10-22 04:55:00,54.8,18.6,29.90,WSW,253,0.0,0.0,24,0.00,,,0.00,Wunderground v.1.15,2013-10-22 11:55:00,
2013-10-22 05:00:00,54.4,18.3,29.90,WSW,253,0.0,0.0,24,0.00,,,0.00,Wunderground v.1.15,2013-10-22 12:00:00,
2013-10-22 05:05:00,54.1,19.0,29.90,WSW,253,0.0,0.0,25,0.00,,,0.00,Wunderground v.1.15,2013-10-22 12:05:00,
2013-10-22 05:10:00,54.1,18.1,29.90,WSW,253,0.0,0.0,24,0.00,,,0.00,Wunderground v.1.15,2013-10-22 12:10:00,
2013-10-22 05:15:00,54.2,18.1,29.90,WSW,253,0.0,0.0,24,0.00,,,0.00,Wunderground v.1.15,2013-10-22 12:15:00,
2013-10-22 05:20:00,54.2,18.1,29.90,WSW,253,0.0,0.0,24,0.00,,,0.00,Wunderground v.1.15,2013-10-22 12:20:00,
2013-10-22 05:25:00,54.2,18.1,29.90,WSW,253,0.0,0.0,24,0.00,,,0.00,Wunderground v.1.15,2013-10-22 12:25:00,
2013-10-22 05:30:00,54.1,17.1,29.90,WSW,253,0.0,0.0,23,0.00,,,0.00,Wunderground v.1.15,2013-10-22 12:30:00,
2013-10-22 05:35:00,54.4,17.3,29.91,WSW,253,0.0,0.0,23,0.00,,,0.00,Wunderground v.1.15,2013-10-22 12:35:00,
2013-10-22 05:40:00,55.0,19.8,29.91,WSW,253,0.0,0.0,25,0.00,,,0.00,Wunderground v.1.15,2013-10-22 12:40:00,
2013-10-22 05:45:00,55.1,17.9,29.91,WSW,253,0.0,0.0,23,0.00,,,0.00,Wunderground v.1.15,2013-10-22 12:45:00,
2013-10-22 05:50:00,55.0,17.8,29.91,WSW,253,0.0,0.0,23,0.00,,,0.00,Wunderground v.1.15,2013-10-22 12:50:00,
2013-10-22 05:55:00,55.1,17.9,29.91,WSW,253,0.0,0.0,23,0.00,,,0.00,Wunderground v.1.15,2013-10-22 12:55:00,
2013-10-22 06:00:00,55.3,18.1,29.91,WSW,253,0.0,0.0,23,0.00,,,0.00,Wunderground v.1.15,2013-10-22 13:00:00,
2013-10-22 06:05:00,55.1,18.9,29.92,WSW,253,0.0,0.0,24,0.00,,,0.00,Wunderground v.1.15,2013-10-22 13:05:00,
2013-10-22 06:10:00,55.0,19.8,29.92,WSW,253,0.0,0.0,25,0.00,,,0.00,Wunderground v.1.15,2013-10-22 13:10:00,
2013-10-22 06:15:00,54.7,19.5,29.92,WSW,253,0.0,0.0,25,0.00,,,0.00,Wunderground v.1.15,2013-10-22 13:15:00,
2013-10-22 06:20:00,54.5,20.3,29.92,WSW,253,0.0,0.0,26,0.00,,,0.00,Wunderground v.1.15,2013-10-22 13:20:00,
2013-10-22 06:30:00,54.5,19.3,29.92,WSW,253,0.0,0.0,25,0.00,,,0.00,Wunderground v.1.15,2013-10-22 13:30:00,
2013-10-22 06:35:00,54.7,17.6,29.92,WSW,253,0.0,0.0,23,0.00,,,0.00,Wunderground v.1.15,2013-10-22 13:35:00,
2013-10-22 06:45:00,55.0,17.8,29.92,WSW,253,0.0,0.0,23,0.00,,,0.00,Wunderground v.1.15,2013-10-22 13:45:00,
2013-10-22 06:50:00,55.1,19.9,29.92,WSW,253,0.0,0.0,25,0.00,,,0.00,Wunderground v.1.15,2013-10-22 13:50:00,
2013-10-22 06:55:00,54.8,19.6,29.92,WSW,253,0.0,0.0,25,0.00,,,0.00,Wunderground v.1.15,2013-10-22 13:55:00,
2013-10-22 07:00:00,54.5,20.3,29.92,WSW,253,0.0,0.0,26,0.00,,,0.00,Wunderground v.1.15,2013-10-22 14:00:00,
2013-10-22 07:05:00,54.2,20.9,29.92,WSW,253,0.0,0.0,27,0.00,,,0.00,Wunderground v.1.15,2013-10-22 14:05:00,
2013-10-22 07:10:00,53.9,20.6,29.92,WSW,253,0.0,0.0,27,0.00,,,0.00,Wunderground v.1.15,2013-10-22 14:10:00,
2013-10-22 07:15:00,53.6,18.6,29.92,WSW,253,0.0,0.0,25,0.00,,,0.00,Wunderground v.1.15,2013-10-22 14:15:00,
2013-10-22 07:20:00,53.5,18.5,29.92,WSW,253,0.0,0.0,25,0.00,,,0.00,Wunderground v.1.15,2013-10-22 14:20:00,
2013-10-22 07:25:00,53.5,18.5,29.92,WSW,253,0.0,0.0,25,0.00,,,0.00,Wunderground v.1.15,2013-10-22 14:25:00,
2013-10-22 07:30:00,53.5,20.3,29.92,WSW,253,0.0,0.0,27,0.00,,,0.00,Wunderground v.1.15,2013-10-22 14:30:00,
2013-10-22 07:35:00,53.6,20.4,29.93,WSW,253,0.0,0.0,27,0.00,,,0.00,Wunderground v.1.15,2013-10-22 14:35:00,
2013-10-22 07:40:00,53.8,20.6,29.93,WSW,253,0.0,0.0,27,0.00,,,0.00,Wunderground v.1.15,2013-10-22 14:40:00,
2013-10-22 07:45:00,54.1,20.8,29.93,WSW,253,0.0,0.0,27,0.00,,,0.00,Wunderground v.1.15,2013-10-22 14:45:00,
2013-10-22 07:50:00,54.4,21.9,29.93,WSW,253,0.0,0.0,28,0.00,,,0.00,Wunderground v.1.15,2013-10-22 14:50:00,
2013-10-22 07:55:00,54.5,21.2,29.93,WSW,253,0.0,0.0,27,0.00,,,0.00,Wunderground v.1.15,2013-10-22 14:55:00,
2013-10-22 08:00:00,55.0,21.6,29.93,WSW,253,0.0,0.0,27,0.00,,,0.00,Wunderground v.1.15,2013-10-22 15:00:00,
2013-10-22 08:05:00,55.6,21.2,29.94,WSW,253,0.0,0.0,26,0.00,,,0.00,Wunderground v.1.15,2013-10-22 15:05:00,
2013-10-22 08:10:00,56.5,20.1,29.94,WSW,253,0.0,0.0,24,0.00,,,0.00,Wunderground v.1.15,2013-10-22 15:10:00,
2013-10-22 08:15:00,57.5,20.9,29.94,WSW,253,0.0,0.0,24,0.00,,,0.00,Wunderground v.1.15,2013-10-22 15:15:00,
2013-10-22 08:20:00,58.1,20.4,29.94,WSW,253,0.0,0.0,23,0.00,,,0.00,Wunderground v.1.15,2013-10-22 15:20:00,
2013-10-22 08:25:00,58.7,17.7,29.94,WSW,253,0.0,0.0,20,0.00,,,0.00,Wunderground v.1.15,2013-10-22 15:25:00,
2013-10-22 08:35:00,60.1,22.1,29.95,WSW,253,0.0,0.0,23,0.00,,,0.00,Wunderground v.1.15,2013-10-22 15:35:00,
2013-10-22 08:40:00,61.5,21.2,29.95,WSW,253,0.0,0.0,21,0.00,,,0.00,Wunderground v.1.15,2013-10-22 15:40:00,
2013-10-22 08:45:00,62.7,19.8,29.95,WSW,253,0.0,0.0,19,0.00,,,0.00,Wunderground v.1.15,2013-10-22 15:45:00,
2013-10-22 08:50:00,63.2,18.9,29.95,WSW,253,0.0,0.0,18,0.00,,,0.00,Wunderground v.1.15,2013-10-22 15:50:00,
2013-10-22 08:55:00,63.7,20.6,29.95,WSW,253,0.0,0.0,19,0.00,,,0.00,Wunderground v.1.15,2013-10-22 15:55:00,
2013-10-22 09:00:00,63.9,20.8,29.95,West,263,0.0,0.0,19,0.00,,,0.00,Wunderground v.1.15,2013-10-22 16:00:00,
2013-10-22 09:05:00,63.9,19.5,29.95,WSW,256,0.0,0.0,18,0.00,,,0.00,Wunderground v.1.15,2013-10-22 16:05:00,
2013-10-22 09:10:00,63.9,19.5,29.95,West,274,0.0,0.0,18,0.00,,,0.00,Wunderground v.1.15,2013-10-22 16:10:00,
2013-10-22 09:20:00,64.2,19.8,29.95,West,271,0.0,1.0,18,0.00,,,0.00,Wunderground v.1.15,2013-10-22 16:20:00,
2013-10-22 09:25:00,64.5,18.7,29.95,West,262,0.0,1.0,17,0.00,,,0.00,Wunderground v.1.15,2013-10-22 16:25:00,
2013-10-22 09:30:00,65.0,19.1,29.95,WSW,255,0.0,0.0,17,0.00,,,0.00,Wunderground v.1.15,2013-10-22 16:30:00,
2013-10-22 09:35:00,66.0,19.9,29.95,West,267,0.0,3.0,17,0.00,,,0.00,Wunderground v.1.15,2013-10-22 16:35:00,
2013-10-22 09:40:00,66.8,20.5,29.95,West,281,0.0,0.0,17,0.00,,,0.00,Wunderground v.1.15,2013-10-22 16:40:00,
2013-10-22 09:45:00,67.8,21.4,29.95,WNW,286,0.0,0.0,17,0.00,,,0.00,Wunderground v.1.15,2013-10-22 16:45:00,
2013-10-22 09:50:00,68.4,21.8,29.95,WNW,294,0.0,0.0,17,0.00,,,0.00,Wunderground v.1.15,2013-10-22 16:50:00,
2013-10-22 09:55:00,69.3,22.6,29.95,WNW,296,0.0,0.0,17,0.00,,,0.00,Wunderground v.1.15,2013-10-22 16:55:00,
2013-10-22 10:05:00,70.4,22.0,29.95,WNW,283,0.0,0.0,16,0.00,,,0.00,Wunderground v.1.15,2013-10-22 17:05:00,
2013-10-22 10:10:00,70.8,20.8,29.95,WNW,285,0.0,0.0,15,0.00,,,0.00,Wunderground v.1.15,2013-10-22 17:10:00,
2013-10-22 10:15:00,70.9,20.9,29.95,WNW,289,0.0,0.0,15,0.00,,,0.00,Wunderground v.1.15,2013-10-22 17:15:00,
2013-10-22 10:20:00,71.3,21.2,29.95,West,273,0.0,0.0,15,0.00,,,0.00,Wunderground v.1.15,2013-10-22 17:20:00,
2013-10-22 10:25:00,71.6,21.5,29.95,West,279,0.0,1.0,15,0.00,,,0.00,Wunderground v.1.15,2013-10-22 17:25:00,
2013-10-22 10:35:00,72.3,22.0,29.95,WNW,289,0.0,0.0,15,0.00,,,0.00,Wunderground v.1.15,2013-10-22 17:35:00,
2013-10-22 10:40:00,72.8,22.4,29.95,WNW,288,0.0,0.0,15,0.00,,,0.00,Wunderground v.1.15,2013-10-22 17:40:00,
2013-10-22 10:45:00,73.0,22.6,29.95,WNW,295,0.0,0.0,15,0.00,,,0.00,Wunderground v.1.15,2013-10-22 17:45:00,
2013-10-22 10:50:00,73.5,21.3,29.95,WNW,295,0.0,0.0,14,0.00,,,0.00,Wunderground v.1.15,2013-10-22 17:50:00,
2013-10-22 10:55:00,73.9,23.3,29.95,WNW,295,0.0,0.0,15,0.00,,,0.00,Wunderground v.1.15,2013-10-22 17:55:00,
2013-10-22 11:00:00,74.2,23.5,29.95,WNW,295,0.0,0.0,15,0.00,,,0.00,Wunderground v.1.15,2013-10-22 18:00:00,
2013-10-22 11:05:00,74.4,20.3,29.94,WNW,295,0.0,0.0,13,0.00,,,0.00,Wunderground v.1.15,2013-10-22 18:05:00,
2013-10-22 11:10:00,74.7,20.5,29.94,WNW,294,0.0,0.0,13,0.00,,,0.00,Wunderground v.1.15,2013-10-22 18:10:00,
2013-10-22 11:15:00,75.1,24.3,29.94,NW,311,0.0,0.0,15,0.00,,,0.00,Wunderground v.1.15,2013-10-22 18:15:00,
2013-10-22 11:20:00,75.6,21.2,29.94,NW,312,0.0,0.0,13,0.00,,,0.00,Wunderground v.1.15,2013-10-22 18:20:00,
2013-10-22 11:25:00,75.4,19.2,29.94,NW,312,0.0,0.0,12,0.00,,,0.00,Wunderground v.1.15,2013-10-22 18:25:00,
2013-10-22 11:30:00,75.6,21.2,29.94,NW,312,0.0,0.0,13,0.00,,,0.00,Wunderground v.1.15,2013-10-22 18:30:00,
2013-10-22 11:35:00,76.1,23.4,29.94,NW,312,0.0,0.0,14,0.00,,,0.00,Wunderground v.1.15,2013-10-22 18:35:00,
2013-10-22 11:40:00,76.3,25.2,29.94,NW,311,0.0,0.0,15,0.00,,,0.00,Wunderground v.1.15,2013-10-22 18:40:00,
2013-10-22 11:45:00,76.3,19.9,29.94,North,11,0.0,0.0,12,0.00,,,0.00,Wunderground v.1.15,2013-10-22 18:45:00,
2013-10-22 11:50:00,76.5,23.7,29.93,North,11,0.0,0.0,14,0.00,,,0.00,Wunderground v.1.15,2013-10-22 18:50:00,
2013-10-22 11:55:00,77.0,22.4,29.93,North,11,0.0,0.0,13,0.00,,,0.00,Wunderground v.1.15,2013-10-22 18:55:00,
2013-10-22 12:00:00,77.2,24.3,29.93,NNE,22,0.0,0.0,14,0.00,,,0.00,Wunderground v.1.15,2013-10-22 19:00:00,
2013-10-22 12:05:00,77.4,26.1,29.92,North,360,0.0,0.0,15,0.00,,,0.00,Wunderground v.1.15,2013-10-22 19:05:00,
2013-10-22 12:10:00,77.4,22.7,29.92,NW,325,0.0,0.0,13,0.00,,,0.00,Wunderground v.1.15,2013-10-22 19:10:00,
2013-10-22 12:15:00,77.9,24.8,29.92,ENE,69,0.0,0.0,14,0.00,,,0.00,Wunderground v.1.15,2013-10-22 19:15:00,
2013-10-22 12:20:00,78.1,25.0,29.92,NE,45,0.0,0.0,14,0.00,,,0.00,Wunderground v.1.15,2013-10-22 19:20:00,
2013-10-22 12:25:00,77.9,23.1,29.92,North,11,0.0,0.0,13,0.00,,,0.00,Wunderground v.1.15,2013-10-22 19:25:00,
2013-10-22 12:30:00,78.1,23.2,29.92,NNE,32,0.0,0.0,13,0.00,,,0.00,Wunderground v.1.15,2013-10-22 19:30:00,
2013-10-22 12:35:00,78.5,23.5,29.91,NNE,32,0.0,0.0,13,0.00,,,0.00,Wunderground v.1.15,2013-10-22 19:35:00,
2013-10-22 12:40:00,79.0,22.0,29.91,NE,46,0.0,0.0,12,0.00,,,0.00,Wunderground v.1.15,2013-10-22 19:40:00,
2013-10-22 12:45:00,79.2,24.1,29.91,NW,315,0.0,0.0,13,0.00,,,0.00,Wunderground v.1.15,2013-10-22 19:45:00,
2013-10-22 12:50:00,79.6,22.5,29.90,NE,49,0.0,0.0,12,0.00,,,0.00,Wunderground v.1.15,2013-10-22 19:50:00,
2013-10-22 12:55:00,79.4,22.3,29.90,ENE,72,0.0,0.0,12,0.00,,,0.00,Wunderground v.1.15,2013-10-22 19:55:00,
2013-10-22 13:05:00,79.8,24.6,29.89,NNE,21,0.0,1.0,13,0.00,,,0.00,Wunderground v.1.15,2013-10-22 20:05:00,
2013-10-22 13:10:00,79.9,22.7,29.89,NNE,14,0.0,0.0,12,0.00,,,0.00,Wunderground v.1.15,2013-10-22 20:10:00,
2013-10-22 13:15:00,80.3,24.9,29.89,ENE,74,0.0,0.0,13,0.00,,,0.00,Wunderground v.1.15,2013-10-22 20:15:00,
2013-10-22 13:20:00,80.3,23.0,29.88,ENE,63,0.0,0.0,12,0.00,,,0.00,Wunderground v.1.15,2013-10-22 20:20:00,
2013-10-22 13:25:00,80.3,23.0,29.88,East,82,0.0,0.0,12,0.00,,,0.00,Wunderground v.1.15,2013-10-22 20:25:00,
2013-10-22 13:30:00,80.7,25.3,29.88,East,86,0.0,3.0,13,0.00,,,0.00,Wunderground v.1.15,2013-10-22 20:30:00,
2013-10-22 13:35:00,80.5,23.2,29.88,ENE,74,1.0,3.0,12,0.00,,,0.00,Wunderground v.1.15,2013-10-22 20:35:00,
2013-10-22 13:40:00,80.5,21.1,29.88,NE,44,2.0,2.0,11,0.00,,,0.00,Wunderground v.1.15,2013-10-22 20:40:00,
2013-10-22 13:50:00,80.9,23.5,29.87,NE,38,0.0,0.0,12,0.00,,,0.00,Wunderground v.1.15,2013-10-22 20:50:00,
2013-10-22 13:55:00,81.2,23.7,29.87,ENE,59,0.0,0.0,12,0.00,,,0.00,Wunderground v.1.15,2013-10-22 20:55:00,
2013-10-22 14:00:00,81.1,23.7,29.87,East,90,0.0,0.0,12,0.00,,,0.00,Wunderground v.1.15,2013-10-22 21:00:00,
2013-10-22 14:05:00,81.1,23.7,29.87,East,95,0.0,0.0,12,0.00,,,0.00,Wunderground v.1.15,2013-10-22 21:05:00,
2013-10-22 14:10:00,81.2,23.7,29.87,ENE,78,1.0,2.0,12,0.00,,,0.00,Wunderground v.1.15,2013-10-22 21:10:00,
2013-10-22 14:15:00,81.6,22.0,29.87,East,80,0.0,2.0,11,0.00,,,0.00,Wunderground v.1.15,2013-10-22 21:15:00,
2013-10-22 14:20:00,81.8,24.2,29.86,ENE,72,1.0,1.0,12,0.00,,,0.00,Wunderground v.1.15,2013-10-22 21:20:00,
2013-10-22 14:25:00,81.6,22.0,29.86,NE,54,1.0,1.0,11,0.00,,,0.00,Wunderground v.1.15,2013-10-22 21:25:00,
2013-10-22 14:30:00,81.4,23.9,29.86,NE,46,1.0,1.0,12,0.00,,,0.00,Wunderground v.1.15,2013-10-22 21:30:00,
2013-10-22 14:35:00,81.4,21.8,29.85,NE,44,0.0,1.0,11,0.00,,,0.00,Wunderground v.1.15,2013-10-22 21:35:00,
2013-10-22 14:40:00,81.4,23.9,29.85,ENE,63,1.0,1.0,12,0.00,,,0.00,Wunderground v.1.15,2013-10-22 21:40:00,
2013-10-22 14:50:00,81.6,22.0,29.85,ENE,68,1.0,1.0,11,0.00,,,0.00,Wunderground v.1.15,2013-10-22 21:50:00,
2013-10-22 14:55:00,81.6,24.0,29.85,NE,37,1.0,1.0,12,0.00,,,0.00,Wunderground v.1.15,2013-10-22 21:55:00,
2013-10-22 15:00:00,81.4,21.8,29.85,NE,46,0.0,0.0,11,0.00,,,0.00,Wunderground v.1.15,2013-10-22 22:00:00,
2013-10-22 15:05:00,81.4,23.9,29.85,ESE,105,0.0,0.0,12,0.00,,,0.00,Wunderground v.1.15,2013-10-22 22:05:00,
2013-10-22 15:15:00,81.8,26.1,29.85,NE,37,0.0,0.0,13,0.00,,,0.00,Wunderground v.1.15,2013-10-22 22:15:00,
2013-10-22 15:20:00,82.2,24.5,29.85,East,86,0.0,0.0,12,0.00,,,0.00,Wunderground v.1.15,2013-10-22 22:20:00,
2013-10-22 15:25:00,81.8,24.2,29.85,NE,56,1.0,1.0,12,0.00,,,0.00,Wunderground v.1.15,2013-10-22 22:25:00,
2013-10-22 15:30:00,81.8,24.2,29.85,ENE,65,0.0,0.0,12,0.00,,,0.00,Wunderground v.1.15,2013-10-22 22:30:00,
2013-10-22 15:35:00,82.2,24.5,29.85,ENE,65,0.0,0.0,12,0.00,,,0.00,Wunderground v.1.15,2013-10-22 22:35:00,
2013-10-22 15:40:00,81.8,24.2,29.85,East,87,1.0,2.0,12,0.00,,,0.00,Wunderground v.1.15,2013-10-22 22:40:00,
2013-10-22 15:45:00,81.6,22.0,29.85,East,88,1.0,2.0,11,0.00,,,0.00,Wunderground v.1.15,2013-10-22 22:45:00,
2013-10-22 15:55:00,81.6,26.0,29.84,East,84,0.0,1.0,13,0.00,,,0.00,Wunderground v.1.15,2013-10-22 22:55:00,
2013-10-22 16:05:00,81.8,24.2,29.84,NE,46,0.0,0.0,12,0.00,,,0.00,Wunderground v.1.15,2013-10-22 23:05:00,
2013-10-22 16:10:00,81.8,22.1,29.84,ENE,65,0.0,1.0,11,0.00,,,0.00,Wunderground v.1.15,2013-10-22 23:10:00,
2013-10-22 16:15:00,81.6,22.0,29.84,ENE,65,0.0,1.0,11,0.00,,,0.00,Wunderground v.1.15,2013-10-22 23:15:00,
2013-10-22 16:20:00,81.6,22.0,29.83,NE,54,0.0,0.0,11,0.00,,,0.00,Wunderground v.1.15,2013-10-22 23:20:00,
2013-10-22 16:25:00,81.2,21.7,29.83,NE,55,0.0,0.0,11,0.00,,,0.00,Wunderground v.1.15,2013-10-22 23:25:00,
2013-10-22 16:30:00,81.1,21.6,29.83,ENE,65,0.0,1.0,11,0.00,,,0.00,Wunderground v.1.15,2013-10-22 23:30:00,
2013-10-22 16:35:00,80.9,23.5,29.83,East,82,1.0,1.0,12,0.00,,,0.00,Wunderground v.1.15,2013-10-22 23:35:00,
2013-10-22 16:40:00,80.7,21.3,29.83,ENE,65,2.0,2.0,11,0.00,,,0.00,Wunderground v.1.15,2013-10-22 23:40:00,
2013-10-22 16:45:00,80.5,21.1,29.83,East,85,1.0,2.0,11,0.00,,,0.00,Wunderground v.1.15,2013-10-22 23:45:00,
2013-10-22 16:50:00,80.5,23.2,29.83,ENE,69,1.0,1.0,12,0.00,,,0.00,Wunderground v.1.15,2013-10-22 23:50:00,
2013-10-22 16:55:00,80.1,20.8,29.83,East,86,0.0,1.0,11,0.00,,,0.00,Wunderground v.1.15,2013-10-22 23:55:00,
2013-10-22 17:00:00,79.8,22.6,29.83,East,82,0.0,0.0,12,0.00,,,0.00,Wunderground v.1.15,2013-10-23 00:00:00,
2013-10-22 17:05:00,79.8,22.6,29.82,ENE,71,0.0,0.0,12,0.00,,,0.00,Wunderground v.1.15,2013-10-23 00:05:00,
2013-10-22 17:10:00,79.6,22.5,29.82,ENE,71,0.0,0.0,12,0.00,,,0.00,Wunderground v.1.15,2013-10-23 00:10:00,
2013-10-22 17:15:00,79.8,22.6,29.82,East,81,0.0,0.0,12,0.00,,,0.00,Wunderground v.1.15,2013-10-23 00:15:00,
2013-10-22 17:20:00,79.6,22.5,29.82,ENE,61,0.0,0.0,12,0.00,,,0.00,Wunderground v.1.15,2013-10-23 00:20:00,
2013-10-22 17:25:00,79.4,22.3,29.82,ENE,66,0.0,0.0,12,0.00,,,0.00,Wunderground v.1.15,2013-10-23 00:25:00,
2013-10-22 17:30:00,79.2,22.2,29.82,ENE,66,0.0,0.0,12,0.00,,,0.00,Wunderground v.1.15,2013-10-23 00:30:00,
2013-10-22 17:35:00,78.6,21.7,29.82,ENE,66,0.0,0.0,12,0.00,,,0.00,Wunderground v.1.15,2013-10-23 00:35:00,
2013-10-22 17:45:00,77.4,22.7,29.82,ENE,66,0.0,0.0,13,0.00,,,0.00,Wunderground v.1.15,2013-10-23 00:45:00,
2013-10-22 17:50:00,76.8,22.2,29.82,ENE,66,0.0,0.0,13,0.00,,,0.00,Wunderground v.1.15,2013-10-23 00:50:00,
2013-10-22 17:55:00,76.5,23.7,29.82,ENE,66,0.0,0.0,14,0.00,,,0.00,Wunderground v.1.15,2013-10-23 00:55:00,
2013-10-22 18:00:00,76.0,25.0,29.82,East,93,0.0,0.0,15,0.00,,,0.00,Wunderground v.1.15,2013-10-23 01:00:00,
2013-10-22 18:05:00,75.3,22.8,29.82,East,93,0.0,0.0,14,0.00,,,0.00,Wunderground v.1.15,2013-10-23 01:05:00,
2013-10-22 18:10:00,74.7,23.9,29.82,East,93,0.0,0.0,15,0.00,,,0.00,Wunderground v.1.15,2013-10-23 01:10:00,
2013-10-22 18:15:00,74.0,23.4,29.82,East,93,0.0,0.0,15,0.00,,,0.00,Wunderground v.1.15,2013-10-23 01:15:00,
2013-10-22 18:20:00,73.5,23.0,29.82,East,93,0.0,0.0,15,0.00,,,0.00,Wunderground v.1.15,2013-10-23 01:20:00,
2013-10-22 18:30:00,72.8,22.4,29.82,East,93,0.0,0.0,15,0.00,,,0.00,Wunderground v.1.15,2013-10-23 01:30:00,
2013-10-22 18:35:00,72.7,22.3,29.82,East,93,0.0,0.0,15,0.00,,,0.00,Wunderground v.1.15,2013-10-23 01:35:00,
2013-10-22 18:40:00,72.5,23.7,29.82,East,93,0.0,0.0,16,0.00,,,0.00,Wunderground v.1.15,2013-10-23 01:40:00,
2013-10-22 18:45:00,72.3,22.0,29.82,East,93,0.0,0.0,15,0.00,,,0.00,Wunderground v.1.15,2013-10-23 01:45:00,
2013-10-22 18:50:00,72.3,22.0,29.82,East,93,0.0,0.0,15,0.00,,,0.00,Wunderground v.1.15,2013-10-23 01:50:00,
2013-10-22 18:55:00,72.1,21.9,29.82,East,93,0.0,0.0,15,0.00,,,0.00,Wunderground v.1.15,2013-10-23 01:55:00,
2013-10-22 19:00:00,72.1,21.9,29.82,East,93,0.0,0.0,15,0.00,,,0.00,Wunderground v.1.15,2013-10-23 02:00:00,
2013-10-22 19:05:00,72.1,21.9,29.83,East,93,0.0,0.0,15,0.00,,,0.00,Wunderground v.1.15,2013-10-23 02:05:00,
2013-10-22 19:10:00,72.0,21.8,29.83,East,93,0.0,0.0,15,0.00,,,0.00,Wunderground v.1.15,2013-10-23 02:10:00,
2013-10-22 19:20:00,71.6,21.5,29.83,East,93,0.0,0.0,15,0.00,,,0.00,Wunderground v.1.15,2013-10-23 02:20:00,
2013-10-22 19:30:00,71.5,21.4,29.83,East,93,0.0,0.0,15,0.00,,,0.00,Wunderground v.1.15,2013-10-23 02:30:00,
2013-10-22 19:35:00,71.3,22.7,29.83,East,93,0.0,0.0,16,0.00,,,0.00,Wunderground v.1.15,2013-10-23 02:35:00,
2013-10-22 19:40:00,71.3,22.7,29.83,East,93,0.0,0.0,16,0.00,,,0.00,Wunderground v.1.15,2013-10-23 02:40:00,
2013-10-22 19:45:00,71.3,22.7,29.83,East,93,0.0,0.0,16,0.00,,,0.00,Wunderground v.1.15,2013-10-23 02:45:00,
2013-10-22 19:50:00,71.1,22.6,29.83,East,93,0.0,0.0,16,0.00,,,0.00,Wunderground v.1.15,2013-10-23 02:50:00,
2013-10-22 19:55:00,70.8,22.3,29.83,East,93,0.0,0.0,16,0.00,,,0.00,Wunderground v.1.15,2013-10-23 02:55:00,
2013-10-22 20:00:00,70.4,22.0,29.83,East,93,0.0,0.0,16,0.00,,,0.00,Wunderground v.1.15,2013-10-23 03:00:00,
2013-10-22 20:05:00,70.1,23.2,29.83,East,93,0.0,0.0,17,0.00,,,0.00,Wunderground v.1.15,2013-10-23 03:05:00,
2013-10-22 20:10:00,69.8,21.5,29.83,East,92,0.0,0.0,16,0.00,,,0.00,Wunderground v.1.15,2013-10-23 03:10:00,
2013-10-22 20:15:00,69.8,21.5,29.83,East,93,0.0,0.0,16,0.00,,,0.00,Wunderground v.1.15,2013-10-23 03:15:00,
2013-10-22 20:20:00,69.3,22.6,29.84,East,93,0.0,0.0,17,0.00,,,0.00,Wunderground v.1.15,2013-10-23 03:20:00,
2013-10-22 20:25:00,68.6,23.4,29.84,East,93,0.0,0.0,18,0.00,,,0.00,Wunderground v.1.15,2013-10-23 03:25:00,
2013-10-22 20:30:00,67.9,22.8,29.84,East,93,0.0,0.0,18,0.00,,,0.00,Wunderground v.1.15,2013-10-23 03:30:00,
2013-10-22 20:35:00,67.1,20.8,29.84,East,93,0.0,0.0,17,0.00,,,0.00,Wunderground v.1.15,2013-10-23 03:35:00,
2013-10-22 20:40:00,66.4,20.2,29.84,East,94,0.0,0.0,17,0.00,,,0.00,Wunderground v.1.15,2013-10-23 03:40:00,
2013-10-22 20:45:00,66.4,21.6,29.84,East,94,0.0,0.0,18,0.00,,,0.00,Wunderground v.1.15,2013-10-23 03:45:00,
2013-10-22 20:50:00,66.3,21.5,29.84,East,94,0.0,0.0,18,0.00,,,0.00,Wunderground v.1.15,2013-10-23 03:50:00,
2013-10-22 21:00:00,66.3,20.1,29.84,East,94,0.0,0.0,17,0.00,,,0.00,Wunderground v.1.15,2013-10-23 04:00:00,
2013-10-22 21:05:00,67.1,22.1,29.84,East,94,0.0,0.0,18,0.00,,,0.00,Wunderground v.1.15,2013-10-23 04:05:00,
2013-10-22 21:10:00,67.1,20.8,29.84,East,94,0.0,0.0,17,0.00,,,0.00,Wunderground v.1.15,2013-10-23 04:10:00,
2013-10-22 21:15:00,67.8,19.9,29.84,East,94,0.0,0.0,16,0.00,,,0.00,Wunderground v.1.15,2013-10-23 04:15:00,
2013-10-22 21:20:00,68.1,21.6,29.85,East,94,0.0,0.0,17,0.00,,,0.00,Wunderground v.1.15,2013-10-23 04:20:00,
2013-10-22 21:25:00,67.6,22.5,29.85,East,94,0.0,0.0,18,0.00,,,0.00,Wunderground v.1.15,2013-10-23 04:25:00,
2013-10-22 21:35:00,66.4,21.6,29.85,East,94,0.0,0.0,18,0.00,,,0.00,Wunderground v.1.15,2013-10-23 04:35:00,
2013-10-22 21:40:00,65.6,22.2,29.85,East,94,0.0,0.0,19,0.00,,,0.00,Wunderground v.1.15,2013-10-23 04:40:00,
2013-10-22 21:45:00,65.2,20.6,29.85,East,94,0.0,0.0,18,0.00,,,0.00,Wunderground v.1.15,2013-10-23 04:45:00,
2013-10-22 21:50:00,64.8,20.2,29.85,East,94,0.0,0.0,18,0.00,,,0.00,Wunderground v.1.15,2013-10-23 04:50:00,
2013-10-22 21:55:00,64.7,20.2,29.85,East,94,0.0,0.0,18,0.00,,,0.00,Wunderground v.1.15,2013-10-23 04:55:00,
2013-10-22 22:00:00,64.3,19.8,29.85,East,94,0.0,0.0,18,0.00,,,0.00,Wunderground v.1.15,2013-10-23 05:00:00,
2013-10-22 22:05:00,64.0,20.9,29.86,East,94,0.0,0.0,19,0.00,,,0.00,Wunderground v.1.15,2013-10-23 05:05:00,
2013-10-22 22:10:00,64.0,19.6,29.86,East,94,0.0,0.0,18,0.00,,,0.00,Wunderground v.1.15,2013-10-23 05:10:00,
2013-10-22 22:15:00,63.7,20.6,29.86,East,94,0.0,0.0,19,0.00,,,0.00,Wunderground v.1.15,2013-10-23 05:15:00,
2013-10-22 22:20:00,63.4,20.4,29.86,East,94,0.0,0.0,19,0.00,,,0.00,Wunderground v.1.15,2013-10-23 05:20:00,
2013-10-22 22:25:00,63.1,20.1,29.86,East,94,0.0,0.0,19,0.00,,,0.00,Wunderground v.1.15,2013-10-23 05:25:00,
2013-10-22 22:30:00,62.7,21.0,29.86,East,94,0.0,0.0,20,0.00,,,0.00,Wunderground v.1.15,2013-10-23 05:30:00,
2013-10-22 22:35:00,62.6,19.7,29.86,East,94,0.0,0.0,19,0.00,,,0.00,Wunderground v.1.15,2013-10-23 05:35:00,
2013-10-22 22:45:00,62.3,20.7,29.86,East,94,0.0,0.0,20,0.00,,,0.00,Wunderground v.1.15,2013-10-23 05:45:00,
2013-10-22 22:50:00,62.1,20.5,29.86,East,94,0.0,0.0,20,0.00,,,0.00,Wunderground v.1.15,2013-10-23 05:50:00,
2013-10-22 22:55:00,61.8,20.3,29.86,East,94,0.0,0.0,20,0.00,,,0.00,Wunderground v.1.15,2013-10-23 05:55:00,
2013-10-22 23:00:00,62.3,19.5,29.86,East,94,0.0,0.0,19,0.00,,,0.00,Wunderground v.1.15,2013-10-23 06:00:00,
2013-10-22 23:05:00,62.6,19.7,29.85,East,94,0.0,0.0,19,0.00,,,0.00,Wunderground v.1.15,2013-10-23 06:05:00,
2013-10-22 23:15:00,63.1,20.1,29.85,East,94,0.0,0.0,19,0.00,,,0.00,Wunderground v.1.15,2013-10-23 06:15:00,
2013-10-22 23:20:00,63.1,21.3,29.85,East,94,0.0,0.0,20,0.00,,,0.00,Wunderground v.1.15,2013-10-23 06:20:00,
2013-10-22 23:25:00,62.7,21.0,29.85,East,94,0.0,0.0,20,0.00,,,0.00,Wunderground v.1.15,2013-10-23 06:25:00,
2013-10-22 23:35:00,62.0,20.4,29.85,East,94,0.0,0.0,20,0.00,,,0.00,Wunderground v.1.15,2013-10-23 06:35:00,
2013-10-22 23:40:00,61.6,20.1,29.85,East,94,0.0,0.0,20,0.00,,,0.00,Wunderground v.1.15,2013-10-23 06:40:00,
2013-10-22 23:45:00,61.2,19.8,29.85,East,94,0.0,0.0,20,0.00,,,0.00,Wunderground v.1.15,2013-10-23 06:45:00,
2013-10-22 23:50:00,60.9,20.7,29.84,East,94,0.0,0.0,21,0.00,,,0.00,Wunderground v.1.15,2013-10-23 06:50:00,
2013-10-22 23:55:00,60.7,20.5,29.84,East,94,0.0,0.0,21,0.00,,,0.00,Wunderground v.1.15,2013-10-23 06:55:00,